sensor_id;sensor_type;location;lat;lon;timestamp;P1;durP1;ratioP1;P2;durP2;ratioP2
39020;SDS011;25188;51.958;5.842;2023-09-19T00:02:02;6.03;;;0.90;;
39020;SDS011;25188;51.958;5.842;2023-09-19T00:04:34;8.43;;;1.58;;
39020;SDS011;25188;51.958;5.842;2023-09-19T00:07:00;6.53;;;1.13;;
39020;SDS011;25188;51.958;5.842;2023-09-19T00:09:27;4.97;;;0.93;;
39020;SDS011;25188;51.958;5.842;2023-09-19T00:11:53;2.60;;;0.65;;
39020;SDS011;25188;51.958;5.842;2023-09-19T00:14:19;3.10;;;0.80;;
39020;SDS011;25188;51.958;5.842;2023-09-19T00:16:44;7.65;;;1.20;;
39020;SDS011;25188;51.958;5.842;2023-09-19T00:19:11;6.47;;;1.00;;
39020;SDS011;25188;51.958;5.842;2023-09-19T00:21:37;10.18;;;1.52;;
39020;SDS011;25188;51.958;5.842;2023-09-19T00:24:03;8.93;;;1.75;;
39020;SDS011;25188;51.958;5.842;2023-09-19T00:26:31;8.98;;;1.52;;
39020;SDS011;25188;51.958;5.842;2023-09-19T00:28:57;10.85;;;1.55;;
39020;SDS011;25188;51.958;5.842;2023-09-19T00:31:33;10.80;;;1.80;;
39020;SDS011;25188;51.958;5.842;2023-09-19T00:33:59;9.13;;;1.52;;
39020;SDS011;25188;51.958;5.842;2023-09-19T00:36:35;11.00;;;2.05;;
39020;SDS011;25188;51.958;5.842;2023-09-19T00:39:01;11.70;;;1.45;;
39020;SDS011;25188;51.958;5.842;2023-09-19T00:41:28;7.57;;;1.45;;
39020;SDS011;25188;51.958;5.842;2023-09-19T00:43:55;10.95;;;1.33;;
39020;SDS011;25188;51.958;5.842;2023-09-19T00:46:20;5.95;;;1.40;;
39020;SDS011;25188;51.958;5.842;2023-09-19T00:48:46;9.10;;;1.40;;
39020;SDS011;25188;51.958;5.842;2023-09-19T00:51:12;7.97;;;1.85;;
39020;SDS011;25188;51.958;5.842;2023-09-19T00:53:39;7.05;;;1.30;;
39020;SDS011;25188;51.958;5.842;2023-09-19T00:56:07;11.95;;;1.63;;
39020;SDS011;25188;51.958;5.842;2023-09-19T00:58:33;8.05;;;0.93;;
39020;SDS011;25188;51.958;5.842;2023-09-19T01:01:00;6.18;;;1.10;;
39020;SDS011;25188;51.958;5.842;2023-09-19T01:03:28;6.60;;;1.50;;
39020;SDS011;25188;51.958;5.842;2023-09-19T01:05:53;8.55;;;1.40;;
39020;SDS011;25188;51.958;5.842;2023-09-19T01:08:19;11.43;;;1.85;;
39020;SDS011;25188;51.958;5.842;2023-09-19T01:10:52;13.40;;;2.30;;
39020;SDS011;25188;51.958;5.842;2023-09-19T01:13:30;7.38;;;1.52;;
39020;SDS011;25188;51.958;5.842;2023-09-19T01:16:19;8.55;;;1.77;;
39020;SDS011;25188;51.958;5.842;2023-09-19T01:19:18;15.23;;;2.28;;
39020;SDS011;25188;51.958;5.842;2023-09-19T01:22:26;12.20;;;2.00;;
39020;SDS011;25188;51.958;5.842;2023-09-19T01:28:13;7.68;;;1.90;;
39020;SDS011;25188;51.958;5.842;2023-09-19T01:30:58;12.90;;;2.60;;
39020;SDS011;25188;51.958;5.842;2023-09-19T01:33:26;13.30;;;2.13;;
39020;SDS011;25188;51.958;5.842;2023-09-19T01:35:52;12.65;;;1.75;;
39020;SDS011;25188;51.958;5.842;2023-09-19T01:38:18;10.48;;;1.50;;
39020;SDS011;25188;51.958;5.842;2023-09-19T01:40:47;5.90;;;1.13;;
39020;SDS011;25188;51.958;5.842;2023-09-19T01:43:26;10.27;;;2.10;;
39020;SDS011;25188;51.958;5.842;2023-09-19T01:46:02;9.30;;;1.70;;
39020;SDS011;25188;51.958;5.842;2023-09-19T01:52:10;10.60;;;1.83;;
39020;SDS011;25188;51.958;5.842;2023-09-19T01:54:48;7.20;;;1.55;;
39020;SDS011;25188;51.958;5.842;2023-09-19T02:00:01;15.70;;;2.63;;
39020;SDS011;25188;51.958;5.842;2023-09-19T02:02:36;6.95;;;1.65;;
39020;SDS011;25188;51.958;5.842;2023-09-19T02:05:04;10.98;;;1.52;;
39020;SDS011;25188;51.958;5.842;2023-09-19T02:07:30;10.10;;;1.73;;
39020;SDS011;25188;51.958;5.842;2023-09-19T02:09:59;14.55;;;2.40;;
39020;SDS011;25188;51.958;5.842;2023-09-19T02:12:31;12.70;;;1.65;;
39020;SDS011;25188;51.958;5.842;2023-09-19T02:14:57;10.35;;;1.67;;
39020;SDS011;25188;51.958;5.842;2023-09-19T02:17:24;7.97;;;1.65;;
39020;SDS011;25188;51.958;5.842;2023-09-19T02:19:53;9.75;;;1.65;;
39020;SDS011;25188;51.958;5.842;2023-09-19T02:22:20;12.05;;;1.83;;
39020;SDS011;25188;51.958;5.842;2023-09-19T02:24:46;12.02;;;2.20;;
39020;SDS011;25188;51.958;5.842;2023-09-19T02:27:13;14.07;;;2.35;;
39020;SDS011;25188;51.958;5.842;2023-09-19T02:29:40;9.68;;;2.00;;
39020;SDS011;25188;51.958;5.842;2023-09-19T02:32:06;7.32;;;1.48;;
39020;SDS011;25188;51.958;5.842;2023-09-19T02:34:32;9.60;;;1.67;;
39020;SDS011;25188;51.958;5.842;2023-09-19T02:37:01;12.60;;;1.88;;
39020;SDS011;25188;51.958;5.842;2023-09-19T02:39:30;17.00;;;2.33;;
39020;SDS011;25188;51.958;5.842;2023-09-19T02:41:56;10.88;;;2.08;;
39020;SDS011;25188;51.958;5.842;2023-09-19T02:44:22;9.85;;;1.70;;
39020;SDS011;25188;51.958;5.842;2023-09-19T02:46:48;16.23;;;2.35;;
39020;SDS011;25188;51.958;5.842;2023-09-19T02:49:14;12.50;;;1.65;;
39020;SDS011;25188;51.958;5.842;2023-09-19T02:51:40;10.52;;;2.10;;
39020;SDS011;25188;51.958;5.842;2023-09-19T02:54:06;11.00;;;1.88;;
39020;SDS011;25188;51.958;5.842;2023-09-19T02:56:31;7.78;;;1.60;;
39020;SDS011;25188;51.958;5.842;2023-09-19T02:58:57;9.38;;;1.65;;
39020;SDS011;25188;51.958;5.842;2023-09-19T03:01:23;9.32;;;1.35;;
39020;SDS011;25188;51.958;5.842;2023-09-19T03:03:48;7.97;;;1.40;;
39020;SDS011;25188;51.958;5.842;2023-09-19T03:06:14;8.48;;;1.63;;
39020;SDS011;25188;51.958;5.842;2023-09-19T03:08:40;12.07;;;1.77;;
39020;SDS011;25188;51.958;5.842;2023-09-19T03:11:07;7.32;;;1.13;;
39020;SDS011;25188;51.958;5.842;2023-09-19T03:13:35;14.32;;;1.73;;
39020;SDS011;25188;51.958;5.842;2023-09-19T03:16:02;15.38;;;1.83;;
39020;SDS011;25188;51.958;5.842;2023-09-19T03:18:30;10.15;;;1.50;;
39020;SDS011;25188;51.958;5.842;2023-09-19T03:20:57;10.70;;;1.80;;
39020;SDS011;25188;51.958;5.842;2023-09-19T03:23:25;8.63;;;1.40;;
39020;SDS011;25188;51.958;5.842;2023-09-19T03:25:51;9.15;;;1.80;;
39020;SDS011;25188;51.958;5.842;2023-09-19T03:28:17;9.48;;;1.05;;
39020;SDS011;25188;51.958;5.842;2023-09-19T03:30:43;10.70;;;1.80;;
39020;SDS011;25188;51.958;5.842;2023-09-19T03:33:09;11.45;;;1.67;;
39020;SDS011;25188;51.958;5.842;2023-09-19T03:35:37;10.20;;;1.20;;
39020;SDS011;25188;51.958;5.842;2023-09-19T03:38:03;15.25;;;1.52;;
39020;SDS011;25188;51.958;5.842;2023-09-19T03:40:29;8.90;;;1.85;;
39020;SDS011;25188;51.958;5.842;2023-09-19T03:42:55;12.27;;;1.38;;
39020;SDS011;25188;51.958;5.842;2023-09-19T03:45:20;6.95;;;1.42;;
39020;SDS011;25188;51.958;5.842;2023-09-19T03:47:46;8.45;;;1.40;;
39020;SDS011;25188;51.958;5.842;2023-09-19T03:50:14;6.95;;;1.40;;
39020;SDS011;25188;51.958;5.842;2023-09-19T03:52:42;8.48;;;1.90;;
39020;SDS011;25188;51.958;5.842;2023-09-19T03:55:11;8.63;;;1.17;;
39020;SDS011;25188;51.958;5.842;2023-09-19T03:57:37;7.88;;;1.00;;
39020;SDS011;25188;51.958;5.842;2023-09-19T04:00:03;7.75;;;1.38;;
39020;SDS011;25188;51.958;5.842;2023-09-19T04:02:39;15.00;;;2.53;;
39020;SDS011;25188;51.958;5.842;2023-09-19T04:05:06;11.75;;;1.98;;
39020;SDS011;25188;51.958;5.842;2023-09-19T04:07:34;11.65;;;1.80;;
39020;SDS011;25188;51.958;5.842;2023-09-19T04:10:00;7.85;;;1.33;;
39020;SDS011;25188;51.958;5.842;2023-09-19T04:12:26;9.48;;;1.60;;
39020;SDS011;25188;51.958;5.842;2023-09-19T04:14:52;14.93;;;1.98;;
39020;SDS011;25188;51.958;5.842;2023-09-19T04:17:17;11.25;;;1.80;;
39020;SDS011;25188;51.958;5.842;2023-09-19T04:19:43;6.13;;;1.35;;
39020;SDS011;25188;51.958;5.842;2023-09-19T04:22:10;9.85;;;1.52;;
39020;SDS011;25188;51.958;5.842;2023-09-19T04:24:37;10.77;;;1.63;;
39020;SDS011;25188;51.958;5.842;2023-09-19T04:27:03;9.77;;;2.22;;
39020;SDS011;25188;51.958;5.842;2023-09-19T04:29:29;9.00;;;1.20;;
39020;SDS011;25188;51.958;5.842;2023-09-19T04:31:56;11.52;;;1.33;;
39020;SDS011;25188;51.958;5.842;2023-09-19T04:34:24;11.73;;;1.67;;
39020;SDS011;25188;51.958;5.842;2023-09-19T04:36:50;8.25;;;1.27;;
39020;SDS011;25188;51.958;5.842;2023-09-19T04:39:15;12.02;;;1.75;;
39020;SDS011;25188;51.958;5.842;2023-09-19T04:41:42;10.27;;;1.55;;
39020;SDS011;25188;51.958;5.842;2023-09-19T04:44:09;11.50;;;1.27;;
39020;SDS011;25188;51.958;5.842;2023-09-19T04:46:35;8.27;;;1.50;;
39020;SDS011;25188;51.958;5.842;2023-09-19T04:49:01;5.40;;;0.82;;
39020;SDS011;25188;51.958;5.842;2023-09-19T04:51:30;8.55;;;1.50;;
39020;SDS011;25188;51.958;5.842;2023-09-19T04:53:59;9.55;;;1.67;;
39020;SDS011;25188;51.958;5.842;2023-09-19T04:56:25;12.52;;;1.83;;
39020;SDS011;25188;51.958;5.842;2023-09-19T04:58:50;9.35;;;1.50;;
39020;SDS011;25188;51.958;5.842;2023-09-19T05:01:16;10.18;;;1.63;;
39020;SDS011;25188;51.958;5.842;2023-09-19T05:03:42;14.48;;;1.67;;
39020;SDS011;25188;51.958;5.842;2023-09-19T05:06:09;15.68;;;1.40;;
39020;SDS011;25188;51.958;5.842;2023-09-19T05:08:35;9.98;;;1.83;;
39020;SDS011;25188;51.958;5.842;2023-09-19T05:11:03;9.00;;;1.50;;
39020;SDS011;25188;51.958;5.842;2023-09-19T05:13:29;7.88;;;1.20;;
39020;SDS011;25188;51.958;5.842;2023-09-19T05:15:59;9.10;;;1.55;;
39020;SDS011;25188;51.958;5.842;2023-09-19T05:18:27;13.85;;;1.52;;
39020;SDS011;25188;51.958;5.842;2023-09-19T05:20:53;9.63;;;2.17;;
39020;SDS011;25188;51.958;5.842;2023-09-19T05:23:19;11.25;;;1.65;;
39020;SDS011;25188;51.958;5.842;2023-09-19T05:25:46;6.50;;;1.20;;
39020;SDS011;25188;51.958;5.842;2023-09-19T05:28:11;6.68;;;1.20;;
39020;SDS011;25188;51.958;5.842;2023-09-19T05:30:39;10.48;;;1.05;;
39020;SDS011;25188;51.958;5.842;2023-09-19T05:33:06;11.48;;;1.67;;
39020;SDS011;25188;51.958;5.842;2023-09-19T05:35:32;9.27;;;1.38;;
39020;SDS011;25188;51.958;5.842;2023-09-19T05:37:58;6.53;;;1.35;;
39020;SDS011;25188;51.958;5.842;2023-09-19T05:40:24;12.32;;;1.30;;
39020;SDS011;25188;51.958;5.842;2023-09-19T05:42:50;6.35;;;1.05;;
39020;SDS011;25188;51.958;5.842;2023-09-19T05:45:16;10.43;;;1.48;;
39020;SDS011;25188;51.958;5.842;2023-09-19T05:47:49;9.48;;;1.70;;
39020;SDS011;25188;51.958;5.842;2023-09-19T05:50:16;10.35;;;1.58;;
39020;SDS011;25188;51.958;5.842;2023-09-19T05:52:43;10.02;;;1.40;;
39020;SDS011;25188;51.958;5.842;2023-09-19T05:55:17;10.25;;;1.83;;
39020;SDS011;25188;51.958;5.842;2023-09-19T05:57:43;13.20;;;1.83;;
39020;SDS011;25188;51.958;5.842;2023-09-19T06:00:13;10.02;;;1.92;;
39020;SDS011;25188;51.958;5.842;2023-09-19T06:02:39;6.38;;;1.38;;
39020;SDS011;25188;51.958;5.842;2023-09-19T06:05:05;8.85;;;1.88;;
39020;SDS011;25188;51.958;5.842;2023-09-19T06:07:35;10.95;;;1.55;;
39020;SDS011;25188;51.958;5.842;2023-09-19T06:10:05;8.15;;;1.42;;
39020;SDS011;25188;51.958;5.842;2023-09-19T06:12:32;9.15;;;1.80;;
39020;SDS011;25188;51.958;5.842;2023-09-19T06:14:58;9.50;;;1.27;;
39020;SDS011;25188;51.958;5.842;2023-09-19T06:17:24;8.63;;;1.48;;
39020;SDS011;25188;51.958;5.842;2023-09-19T06:19:52;8.38;;;1.23;;
39020;SDS011;25188;51.958;5.842;2023-09-19T06:22:18;7.38;;;1.00;;
39020;SDS011;25188;51.958;5.842;2023-09-19T06:24:44;7.20;;;1.13;;
39020;SDS011;25188;51.958;5.842;2023-09-19T06:27:11;6.85;;;1.20;;
39020;SDS011;25188;51.958;5.842;2023-09-19T06:29:38;8.80;;;1.25;;
39020;SDS011;25188;51.958;5.842;2023-09-19T06:32:07;7.70;;;1.38;;
39020;SDS011;25188;51.958;5.842;2023-09-19T06:34:34;8.45;;;1.38;;
39020;SDS011;25188;51.958;5.842;2023-09-19T06:36:59;8.18;;;1.10;;
39020;SDS011;25188;51.958;5.842;2023-09-19T06:39:25;6.13;;;1.10;;
39020;SDS011;25188;51.958;5.842;2023-09-19T06:41:51;10.77;;;1.30;;
39020;SDS011;25188;51.958;5.842;2023-09-19T06:44:18;8.48;;;1.40;;
39020;SDS011;25188;51.958;5.842;2023-09-19T06:46:46;8.57;;;1.75;;
39020;SDS011;25188;51.958;5.842;2023-09-19T06:49:16;9.30;;;2.00;;
39020;SDS011;25188;51.958;5.842;2023-09-19T06:51:42;9.40;;;2.03;;
39020;SDS011;25188;51.958;5.842;2023-09-19T06:54:08;7.78;;;1.30;;
39020;SDS011;25188;51.958;5.842;2023-09-19T06:56:34;7.00;;;0.93;;
39020;SDS011;25188;51.958;5.842;2023-09-19T06:59:00;10.60;;;1.60;;
39020;SDS011;25188;51.958;5.842;2023-09-19T07:01:27;8.07;;;1.50;;
39020;SDS011;25188;51.958;5.842;2023-09-19T07:03:53;9.63;;;1.48;;
39020;SDS011;25188;51.958;5.842;2023-09-19T07:06:19;6.57;;;1.20;;
39020;SDS011;25188;51.958;5.842;2023-09-19T07:08:45;9.75;;;1.40;;
39020;SDS011;25188;51.958;5.842;2023-09-19T07:11:10;7.93;;;1.20;;
39020;SDS011;25188;51.958;5.842;2023-09-19T07:13:37;8.57;;;1.35;;
39020;SDS011;25188;51.958;5.842;2023-09-19T07:16:03;8.88;;;1.65;;
39020;SDS011;25188;51.958;5.842;2023-09-19T07:18:29;8.52;;;1.10;;
39020;SDS011;25188;51.958;5.842;2023-09-19T07:20:58;10.10;;;1.92;;
39020;SDS011;25188;51.958;5.842;2023-09-19T07:23:30;6.95;;;1.25;;
39020;SDS011;25188;51.958;5.842;2023-09-19T07:25:59;10.45;;;1.58;;
39020;SDS011;25188;51.958;5.842;2023-09-19T07:28:26;10.27;;;1.65;;
39020;SDS011;25188;51.958;5.842;2023-09-19T07:30:52;11.85;;;1.48;;
39020;SDS011;25188;51.958;5.842;2023-09-19T07:33:17;8.43;;;1.80;;
39020;SDS011;25188;51.958;5.842;2023-09-19T07:35:46;11.05;;;1.63;;
39020;SDS011;25188;51.958;5.842;2023-09-19T07:38:12;9.73;;;1.60;;
39020;SDS011;25188;51.958;5.842;2023-09-19T07:40:38;11.10;;;1.88;;
39020;SDS011;25188;51.958;5.842;2023-09-19T07:43:04;9.52;;;1.40;;
39020;SDS011;25188;51.958;5.842;2023-09-19T07:45:31;8.95;;;1.10;;
39020;SDS011;25188;51.958;5.842;2023-09-19T07:47:57;6.03;;;1.38;;
39020;SDS011;25188;51.958;5.842;2023-09-19T07:50:25;9.60;;;1.60;;
39020;SDS011;25188;51.958;5.842;2023-09-19T07:52:51;9.65;;;1.35;;
39020;SDS011;25188;51.958;5.842;2023-09-19T07:55:18;8.40;;;1.10;;
39020;SDS011;25188;51.958;5.842;2023-09-19T07:57:45;9.00;;;1.50;;
39020;SDS011;25188;51.958;5.842;2023-09-19T08:00:11;8.43;;;1.30;;
39020;SDS011;25188;51.958;5.842;2023-09-19T08:02:38;6.80;;;1.25;;
39020;SDS011;25188;51.958;5.842;2023-09-19T08:05:05;6.68;;;0.90;;
39020;SDS011;25188;51.958;5.842;2023-09-19T08:07:32;11.15;;;1.10;;
39020;SDS011;25188;51.958;5.842;2023-09-19T08:09:57;11.60;;;1.85;;
39020;SDS011;25188;51.958;5.842;2023-09-19T08:12:23;11.18;;;1.25;;
39020;SDS011;25188;51.958;5.842;2023-09-19T08:14:50;10.65;;;1.90;;
39020;SDS011;25188;51.958;5.842;2023-09-19T08:17:15;5.90;;;1.35;;
39020;SDS011;25188;51.958;5.842;2023-09-19T08:19:41;10.82;;;1.75;;
39020;SDS011;25188;51.958;5.842;2023-09-19T08:22:09;9.68;;;1.95;;
39020;SDS011;25188;51.958;5.842;2023-09-19T08:24:36;8.68;;;1.52;;
39020;SDS011;25188;51.958;5.842;2023-09-19T08:27:01;7.97;;;0.88;;
39020;SDS011;25188;51.958;5.842;2023-09-19T08:29:29;9.27;;;1.83;;
39020;SDS011;25188;51.958;5.842;2023-09-19T08:31:59;9.63;;;1.13;;
39020;SDS011;25188;51.958;5.842;2023-09-19T08:34:25;8.43;;;1.83;;
39020;SDS011;25188;51.958;5.842;2023-09-19T08:36:51;10.85;;;1.90;;
39020;SDS011;25188;51.958;5.842;2023-09-19T08:39:23;9.13;;;1.20;;
39020;SDS011;25188;51.958;5.842;2023-09-19T08:41:56;8.82;;;1.48;;
39020;SDS011;25188;51.958;5.842;2023-09-19T08:44:24;11.63;;;1.48;;
39020;SDS011;25188;51.958;5.842;2023-09-19T08:46:49;9.40;;;1.60;;
39020;SDS011;25188;51.958;5.842;2023-09-19T08:49:24;12.18;;;1.77;;
39020;SDS011;25188;51.958;5.842;2023-09-19T08:52:05;19.35;;;1.70;;
39020;SDS011;25188;51.958;5.842;2023-09-19T08:55:06;11.93;;;2.13;;
39020;SDS011;25188;51.958;5.842;2023-09-19T08:57:36;14.13;;;2.00;;
39020;SDS011;25188;51.958;5.842;2023-09-19T09:00:06;9.90;;;1.52;;
39020;SDS011;25188;51.958;5.842;2023-09-19T09:02:37;9.82;;;1.75;;
39020;SDS011;25188;51.958;5.842;2023-09-19T09:05:08;12.40;;;2.17;;
39020;SDS011;25188;51.958;5.842;2023-09-19T09:07:35;12.75;;;1.75;;
39020;SDS011;25188;51.958;5.842;2023-09-19T09:10:02;9.32;;;1.65;;
39020;SDS011;25188;51.958;5.842;2023-09-19T09:12:29;10.48;;;1.67;;
39020;SDS011;25188;51.958;5.842;2023-09-19T09:14:55;8.05;;;1.80;;
39020;SDS011;25188;51.958;5.842;2023-09-19T09:17:25;12.55;;;1.77;;
39020;SDS011;25188;51.958;5.842;2023-09-19T09:19:53;9.63;;;1.88;;
39020;SDS011;25188;51.958;5.842;2023-09-19T09:22:19;7.97;;;2.00;;
39020;SDS011;25188;51.958;5.842;2023-09-19T09:24:55;14.25;;;1.73;;
39020;SDS011;25188;51.958;5.842;2023-09-19T09:27:23;6.53;;;1.55;;
39020;SDS011;25188;51.958;5.842;2023-09-19T09:29:50;10.63;;;1.40;;
39020;SDS011;25188;51.958;5.842;2023-09-19T09:32:17;9.85;;;1.40;;
39020;SDS011;25188;51.958;5.842;2023-09-19T09:34:45;8.98;;;1.00;;
39020;SDS011;25188;51.958;5.842;2023-09-19T09:37:19;9.15;;;2.15;;
39020;SDS011;25188;51.958;5.842;2023-09-19T09:39:55;6.68;;;1.38;;
39020;SDS011;25188;51.958;5.842;2023-09-19T09:42:29;11.10;;;1.30;;
39020;SDS011;25188;51.958;5.842;2023-09-19T09:47:44;9.07;;;1.92;;
39020;SDS011;25188;51.958;5.842;2023-09-19T09:50:34;6.68;;;1.40;;
39020;SDS011;25188;51.958;5.842;2023-09-19T09:53:19;6.22;;;1.60;;
39020;SDS011;25188;51.958;5.842;2023-09-19T09:58:31;8.00;;;1.83;;
39020;SDS011;25188;51.958;5.842;2023-09-19T10:00:58;7.45;;;1.80;;
39020;SDS011;25188;51.958;5.842;2023-09-19T10:03:30;9.68;;;1.70;;
39020;SDS011;25188;51.958;5.842;2023-09-19T10:05:58;7.75;;;1.35;;
39020;SDS011;25188;51.958;5.842;2023-09-19T10:08:27;10.13;;;2.17;;
39020;SDS011;25188;51.958;5.842;2023-09-19T10:10:56;10.50;;;2.00;;
39020;SDS011;25188;51.958;5.842;2023-09-19T10:13:30;7.05;;;1.52;;
39020;SDS011;25188;51.958;5.842;2023-09-19T10:15:59;9.75;;;1.60;;
39020;SDS011;25188;51.958;5.842;2023-09-19T10:18:31;7.80;;;1.58;;
39020;SDS011;25188;51.958;5.842;2023-09-19T10:21:01;7.75;;;1.65;;
39020;SDS011;25188;51.958;5.842;2023-09-19T10:23:29;6.63;;;1.27;;
39020;SDS011;25188;51.958;5.842;2023-09-19T10:25:59;7.65;;;1.45;;
39020;SDS011;25188;51.958;5.842;2023-09-19T10:28:27;17.95;;;1.88;;
39020;SDS011;25188;51.958;5.842;2023-09-19T10:30:55;8.20;;;1.77;;
39020;SDS011;25188;51.958;5.842;2023-09-19T10:33:22;10.40;;;1.60;;
39020;SDS011;25188;51.958;5.842;2023-09-19T10:35:52;8.68;;;1.45;;
39020;SDS011;25188;51.958;5.842;2023-09-19T10:38:23;11.32;;;2.00;;
39020;SDS011;25188;51.958;5.842;2023-09-19T10:40:51;8.50;;;1.27;;
39020;SDS011;25188;51.958;5.842;2023-09-19T10:43:20;8.85;;;1.02;;
39020;SDS011;25188;51.958;5.842;2023-09-19T10:45:47;7.68;;;1.65;;
39020;SDS011;25188;51.958;5.842;2023-09-19T10:48:14;11.82;;;1.40;;
39020;SDS011;25188;51.958;5.842;2023-09-19T10:50:44;9.57;;;2.00;;
39020;SDS011;25188;51.958;5.842;2023-09-19T10:53:14;6.40;;;1.27;;
39020;SDS011;25188;51.958;5.842;2023-09-19T10:55:41;8.80;;;1.45;;
39020;SDS011;25188;51.958;5.842;2023-09-19T10:58:29;8.55;;;1.33;;
39020;SDS011;25188;51.958;5.842;2023-09-19T11:01:02;7.55;;;1.10;;
39020;SDS011;25188;51.958;5.842;2023-09-19T11:03:30;7.13;;;1.10;;
39020;SDS011;25188;51.958;5.842;2023-09-19T11:08:55;8.43;;;1.48;;
39020;SDS011;25188;51.958;5.842;2023-09-19T11:36:34;8.07;;;1.70;;
39020;SDS011;25188;51.958;5.842;2023-09-19T11:46:26;4.57;;;0.90;;
39020;SDS011;25188;51.958;5.842;2023-09-19T11:48:53;8.63;;;1.00;;
39020;SDS011;25188;51.958;5.842;2023-09-19T11:53:51;6.93;;;1.50;;
39020;SDS011;25188;51.958;5.842;2023-09-19T11:56:21;9.00;;;1.45;;
39020;SDS011;25188;51.958;5.842;2023-09-19T11:58:50;5.05;;;1.02;;
39020;SDS011;25188;51.958;5.842;2023-09-19T12:01:33;6.53;;;0.77;;
39020;SDS011;25188;51.958;5.842;2023-09-19T12:04:00;8.88;;;1.58;;
39020;SDS011;25188;51.958;5.842;2023-09-19T12:06:29;7.55;;;0.95;;
39020;SDS011;25188;51.958;5.842;2023-09-19T12:08:57;6.63;;;0.73;;
39020;SDS011;25188;51.958;5.842;2023-09-19T12:11:27;6.38;;;0.95;;
39020;SDS011;25188;51.958;5.842;2023-09-19T12:13:58;5.78;;;0.90;;
39020;SDS011;25188;51.958;5.842;2023-09-19T12:16:26;3.95;;;0.80;;
39020;SDS011;25188;51.958;5.842;2023-09-19T12:18:55;5.97;;;0.88;;
39020;SDS011;25188;51.958;5.842;2023-09-19T12:24:00;4.32;;;0.90;;
39020;SDS011;25188;51.958;5.842;2023-09-19T12:26:42;3.55;;;0.85;;
39020;SDS011;25188;51.958;5.842;2023-09-19T12:29:12;7.47;;;0.90;;
39020;SDS011;25188;51.958;5.842;2023-09-19T12:31:52;4.47;;;1.00;;
39020;SDS011;25188;51.958;5.842;2023-09-19T12:34:29;4.63;;;0.73;;
39020;SDS011;25188;51.958;5.842;2023-09-19T12:37:14;3.92;;;0.80;;
39020;SDS011;25188;51.958;5.842;2023-09-19T12:39:45;3.88;;;0.50;;
39020;SDS011;25188;51.958;5.842;2023-09-19T12:42:16;4.97;;;0.70;;
39020;SDS011;25188;51.958;5.842;2023-09-19T12:44:48;5.40;;;1.00;;
39020;SDS011;25188;51.958;5.842;2023-09-19T12:47:20;5.15;;;0.80;;
39020;SDS011;25188;51.958;5.842;2023-09-19T12:52:44;3.45;;;0.50;;
39020;SDS011;25188;51.958;5.842;2023-09-19T12:55:31;2.70;;;0.47;;
39020;SDS011;25188;51.958;5.842;2023-09-19T12:58:14;3.65;;;0.57;;
39020;SDS011;25188;51.958;5.842;2023-09-19T13:03:11;5.55;;;1.20;;
39020;SDS011;25188;51.958;5.842;2023-09-19T13:05:48;5.85;;;0.70;;
39020;SDS011;25188;51.958;5.842;2023-09-19T13:08:37;5.43;;;0.98;;
39020;SDS011;25188;51.958;5.842;2023-09-19T13:11:16;3.80;;;0.70;;
39020;SDS011;25188;51.958;5.842;2023-09-19T13:13:47;4.85;;;0.75;;
39020;SDS011;25188;51.958;5.842;2023-09-19T13:16:19;4.68;;;0.60;;
39020;SDS011;25188;51.958;5.842;2023-09-19T13:18:51;3.55;;;0.50;;
39020;SDS011;25188;51.958;5.842;2023-09-19T13:21:29;4.95;;;0.60;;
39020;SDS011;25188;51.958;5.842;2023-09-19T13:24:17;5.47;;;0.65;;
39020;SDS011;25188;51.958;5.842;2023-09-19T13:26:44;5.70;;;0.50;;
39020;SDS011;25188;51.958;5.842;2023-09-19T13:29:10;4.55;;;0.60;;
39020;SDS011;25188;51.958;5.842;2023-09-19T13:31:36;4.38;;;0.63;;
39020;SDS011;25188;51.958;5.842;2023-09-19T13:34:06;8.65;;;0.60;;
39020;SDS011;25188;51.958;5.842;2023-09-19T13:36:32;4.00;;;0.60;;
39020;SDS011;25188;51.958;5.842;2023-09-19T13:38:58;3.55;;;0.43;;
39020;SDS011;25188;51.958;5.842;2023-09-19T13:41:25;3.45;;;0.38;;
39020;SDS011;25188;51.958;5.842;2023-09-19T13:43:51;7.78;;;1.05;;
39020;SDS011;25188;51.958;5.842;2023-09-19T13:46:17;3.60;;;0.43;;
39020;SDS011;25188;51.958;5.842;2023-09-19T13:48:50;3.83;;;0.90;;
39020;SDS011;25188;51.958;5.842;2023-09-19T13:51:17;3.80;;;0.47;;
39020;SDS011;25188;51.958;5.842;2023-09-19T13:53:44;2.05;;;0.38;;
39020;SDS011;25188;51.958;5.842;2023-09-19T13:56:09;4.28;;;0.50;;
39020;SDS011;25188;51.958;5.842;2023-09-19T13:58:36;3.28;;;0.50;;
39020;SDS011;25188;51.958;5.842;2023-09-19T14:01:01;2.83;;;0.50;;
39020;SDS011;25188;51.958;5.842;2023-09-19T14:03:27;3.72;;;0.63;;
39020;SDS011;25188;51.958;5.842;2023-09-19T14:05:53;6.43;;;0.57;;
39020;SDS011;25188;51.958;5.842;2023-09-19T14:08:19;1.80;;;0.30;;
39020;SDS011;25188;51.958;5.842;2023-09-19T14:10:45;2.50;;;0.50;;
39020;SDS011;25188;51.958;5.842;2023-09-19T14:13:10;5.93;;;0.38;;
39020;SDS011;25188;51.958;5.842;2023-09-19T14:15:38;2.80;;;0.50;;
39020;SDS011;25188;51.958;5.842;2023-09-19T14:18:04;5.25;;;0.52;;
39020;SDS011;25188;51.958;5.842;2023-09-19T14:20:29;3.75;;;0.38;;
39020;SDS011;25188;51.958;5.842;2023-09-19T14:22:56;2.45;;;0.40;;
39020;SDS011;25188;51.958;5.842;2023-09-19T14:25:23;3.92;;;0.38;;
39020;SDS011;25188;51.958;5.842;2023-09-19T14:27:49;3.72;;;0.60;;
39020;SDS011;25188;51.958;5.842;2023-09-19T14:30:15;5.13;;;0.70;;
39020;SDS011;25188;51.958;5.842;2023-09-19T14:32:41;6.30;;;0.40;;
39020;SDS011;25188;51.958;5.842;2023-09-19T14:35:07;2.15;;;0.40;;
39020;SDS011;25188;51.958;5.842;2023-09-19T14:37:34;5.03;;;0.60;;
39020;SDS011;25188;51.958;5.842;2023-09-19T14:40:00;3.13;;;0.70;;
39020;SDS011;25188;51.958;5.842;2023-09-19T14:42:32;4.15;;;0.68;;
39020;SDS011;25188;51.958;5.842;2023-09-19T14:44:57;4.57;;;0.60;;
39020;SDS011;25188;51.958;5.842;2023-09-19T14:47:23;3.38;;;0.73;;
39020;SDS011;25188;51.958;5.842;2023-09-19T14:49:49;2.55;;;0.60;;
39020;SDS011;25188;51.958;5.842;2023-09-19T14:52:14;5.10;;;0.68;;
39020;SDS011;25188;51.958;5.842;2023-09-19T14:54:40;3.20;;;0.52;;
39020;SDS011;25188;51.958;5.842;2023-09-19T14:57:06;3.40;;;0.50;;
39020;SDS011;25188;51.958;5.842;2023-09-19T14:59:34;3.65;;;0.63;;
39020;SDS011;25188;51.958;5.842;2023-09-19T15:02:06;3.03;;;0.40;;
39020;SDS011;25188;51.958;5.842;2023-09-19T15:04:32;5.45;;;0.65;;
39020;SDS011;25188;51.958;5.842;2023-09-19T15:06:58;3.13;;;0.50;;
39020;SDS011;25188;51.958;5.842;2023-09-19T15:09:24;6.35;;;0.57;;
39020;SDS011;25188;51.958;5.842;2023-09-19T15:11:54;3.30;;;0.60;;
39020;SDS011;25188;51.958;5.842;2023-09-19T15:14:20;3.10;;;0.50;;
39020;SDS011;25188;51.958;5.842;2023-09-19T15:16:50;4.93;;;0.70;;
39020;SDS011;25188;51.958;5.842;2023-09-19T15:19:15;2.92;;;0.50;;
39020;SDS011;25188;51.958;5.842;2023-09-19T15:21:42;4.75;;;0.70;;
39020;SDS011;25188;51.958;5.842;2023-09-19T15:24:08;4.60;;;0.65;;
39020;SDS011;25188;51.958;5.842;2023-09-19T15:26:34;6.03;;;0.70;;
39020;SDS011;25188;51.958;5.842;2023-09-19T15:29:04;4.75;;;0.80;;
39020;SDS011;25188;51.958;5.842;2023-09-19T15:31:31;4.45;;;0.95;;
39020;SDS011;25188;51.958;5.842;2023-09-19T15:33:57;2.97;;;0.60;;
39020;SDS011;25188;51.958;5.842;2023-09-19T15:36:22;2.78;;;0.60;;
39020;SDS011;25188;51.958;5.842;2023-09-19T15:39:04;2.90;;;0.70;;
39020;SDS011;25188;51.958;5.842;2023-09-19T15:41:36;3.95;;;0.70;;
39020;SDS011;25188;51.958;5.842;2023-09-19T15:44:03;2.95;;;0.60;;
39020;SDS011;25188;51.958;5.842;2023-09-19T15:46:30;3.05;;;0.50;;
39020;SDS011;25188;51.958;5.842;2023-09-19T15:48:57;2.53;;;0.50;;
39020;SDS011;25188;51.958;5.842;2023-09-19T15:51:23;5.57;;;0.85;;
39020;SDS011;25188;51.958;5.842;2023-09-19T15:53:49;2.80;;;0.50;;